Time;durP1;ratioP1;P1;durP2;ratioP2;P2;SDS_P1;SDS_P2;PMS_P1;PMS_P2;Temp;Humidity;BMP_temperature;BMP_pressure;BME280_temperature;BME280_humidity;BME280_pressure;Samples;Min_cycle;Max_cycle;Signal;HPM_P1;HPM_P2
2023/12/03 00:02:07;;;;;;;30.88;10.30;;;3.30;99.90;;;;;;5012152;28;20038;-80
2023/12/03 00:04:33;;;;;;;21.30;8.38;;;3.20;99.90;;;;;;5011292;28;20048;-80
2023/12/03 00:06:59;;;;;;;23.55;8.82;;;3.20;99.90;;;;;;5011488;28;20026;-79
2023/12/03 00:09:25;;;;;;;22.70;8.65;;;3.20;99.90;;;;;;5011055;28;20037;-80
2023/12/03 00:11:51;;;;;;;22.13;8.95;;;3.20;99.90;;;;;;5011462;28;20057;-80
2023/12/03 00:14:18;;;;;;;23.38;8.20;;;3.20;99.90;;;;;;5011753;28;20059;-80
2023/12/03 00:16:43;;;;;;;20.58;7.85;;;3.30;99.90;;;;;;5010802;28;20046;-80
2023/12/03 00:19:09;;;;;;;26.77;9.00;;;3.20;99.90;;;;;;5012041;28;20369;-79
2023/12/03 00:21:35;;;;;;;20.48;8.20;;;3.30;99.90;;;;;;5016336;28;20039;-78
2023/12/03 00:24:00;;;;;;;21.77;8.55;;;3.20;99.90;;;;;;5014882;28;20408;-80
2023/12/03 00:26:26;;;;;;;25.30;7.78;;;3.20;99.90;;;;;;5015521;28;20096;-80
2023/12/03 00:28:52;;;;;;;24.73;8.45;;;3.20;99.90;;;;;;5015047;28;20054;-79
2023/12/03 00:31:17;;;;;;;22.23;8.77;;;3.30;99.90;;;;;;5014524;28;20036;-78
2023/12/03 00:33:43;;;;;;;26.02;8.60;;;3.30;99.90;;;;;;5014676;28;20018;-80
2023/12/03 00:36:09;;;;;;;29.08;10.80;;;3.30;99.90;;;;;;5014190;28;20018;-81
2023/12/03 00:38:35;;;;;;;24.90;9.90;;;3.40;99.90;;;;;;5012445;28;20041;-80
2023/12/03 00:41:00;;;;;;;24.23;8.52;;;3.30;99.90;;;;;;5014368;28;20022;-79
2023/12/03 00:43:26;;;;;;;22.40;9.27;;;3.30;99.90;;;;;;5014437;28;20030;-81
2023/12/03 00:45:53;;;;;;;21.88;9.55;;;3.30;99.90;;;;;;5015886;28;20300;-80
2023/12/03 00:48:19;;;;;;;21.95;9.38;;;3.30;99.90;;;;;;5013863;28;20018;-80
2023/12/03 00:50:44;;;;;;;26.45;9.45;;;3.30;99.90;;;;;;5015679;28;20026;-80
2023/12/03 00:53:10;;;;;;;28.10;10.32;;;3.30;99.90;;;;;;5015028;28;20377;-80
2023/12/03 00:55:36;;;;;;;22.98;9.50;;;3.40;99.90;;;;;;5014642;28;20494;-80
2023/12/03 00:58:02;;;;;;;31.75;10.77;;;3.40;99.90;;;;;;5013984;28;20532;-81
2023/12/03 01:00:28;;;;;;;23.13;9.50;;;3.40;99.90;;;;;;5015656;28;20483;-79
2023/12/03 01:02:54;;;;;;;33.45;9.35;;;3.40;99.90;;;;;;5013532;28;20033;-80
2023/12/03 01:05:20;;;;;;;29.17;9.55;;;3.40;99.90;;;;;;5013633;28;20034;-80
2023/12/03 01:07:45;;;;;;;26.05;9.75;;;3.30;99.90;;;;;;5015233;28;20480;-80
2023/12/03 01:10:12;;;;;;;21.67;9.40;;;3.40;99.90;;;;;;5013813;28;20121;-80
2023/12/03 01:12:38;;;;;;;24.10;9.48;;;3.30;99.90;;;;;;5014215;28;20076;-80
2023/12/03 01:15:04;;;;;;;22.00;9.52;;;3.30;99.90;;;;;;5015008;28;20050;-80
2023/12/03 01:17:29;;;;;;;23.30;9.27;;;3.30;99.90;;;;;;5015052;28;20564;-81
2023/12/03 01:19:55;;;;;;;23.83;8.63;;;3.30;99.90;;;;;;5015115;28;20076;-80
2023/12/03 01:22:21;;;;;;;21.85;9.32;;;3.40;99.90;;;;;;5014979;28;20100;-81
2023/12/03 01:24:46;;;;;;;27.63;9.93;;;3.40;99.90;;;;;;5014813;28;20034;-81
2023/12/03 01:27:12;;;;;;;30.83;9.15;;;3.40;99.90;;;;;;5013458;28;20526;-80
2023/12/03 01:29:38;;;;;;;29.75;10.57;;;3.40;99.90;;;;;;5013547;28;20076;-80
2023/12/03 01:32:05;;;;;;;25.77;9.68;;;3.40;99.90;;;;;;5014069;28;20026;-80
2023/12/03 01:34:31;;;;;;;26.58;11.25;;;3.40;99.90;;;;;;5013810;28;20101;-80
2023/12/03 01:36:57;;;;;;;28.27;11.43;;;3.50;99.90;;;;;;5013458;28;20602;-80
2023/12/03 01:39:23;;;;;;;27.52;10.90;;;3.50;99.90;;;;;;5014011;28;20388;-80
2023/12/03 01:41:52;;;;;;;27.77;10.45;;;3.50;99.90;;;;;;5013850;28;20032;-80
2023/12/03 01:44:18;;;;;;;25.02;9.85;;;3.60;99.90;;;;;;5013126;28;20018;-80
2023/12/03 01:46:46;;;;;;;22.45;10.00;;;3.60;99.90;;;;;;5013529;28;20455;-80
2023/12/03 01:49:12;;;;;;;28.42;10.00;;;3.60;99.90;;;;;;5014136;28;20037;-80
2023/12/03 01:51:38;;;;;;;29.15;11.15;;;3.60;99.90;;;;;;5013327;28;20542;-80
2023/12/03 01:54:04;;;;;;;27.63;10.07;;;3.60;99.90;;;;;;5013286;28;20022;-79
2023/12/03 01:56:30;;;;;;;30.75;10.38;;;3.50;99.90;;;;;;5014503;28;20115;-79
2023/12/03 01:58:56;;;;;;;28.45;11.68;;;3.50;99.90;;;;;;5013408;28;20018;-80
2023/12/03 02:01:22;;;;;;;31.00;11.77;;;3.50;99.90;;;;;;5014419;28;20029;-81
2023/12/03 02:03:48;;;;;;;34.75;11.73;;;3.50;99.90;;;;;;5012817;28;20029;-79
2023/12/03 02:06:15;;;;;;;31.00;10.80;;;3.50;99.90;;;;;;5012279;28;20026;-80
2023/12/03 02:08:40;;;;;;;27.92;11.40;;;3.50;99.90;;;;;;5013024;28;20080;-80
2023/12/03 02:11:07;;;;;;;28.48;10.13;;;3.50;99.90;;;;;;5012918;28;20483;-80
2023/12/03 02:13:36;;;;;;;24.42;10.77;;;3.50;99.90;;;;;;5012437;28;20037;-81
2023/12/03 02:16:02;;;;;;;36.38;11.43;;;3.50;99.90;;;;;;5012506;28;20046;-81
2023/12/03 02:18:29;;;;;;;22.73;10.30;;;3.50;99.90;;;;;;5012664;28;20029;-81
2023/12/03 02:20:55;;;;;;;24.77;10.57;;;3.50;99.90;;;;;;5014146;28;20018;-79
2023/12/03 02:23:21;;;;;;;22.70;9.85;;;3.50;99.90;;;;;;5013621;28;20026;-80
2023/12/03 02:25:51;;;;;;;27.65;11.43;;;3.50;99.90;;;;;;5013270;28;20037;-80
2023/12/03 02:28:20;;;;;;;26.95;10.50;;;3.50;99.90;;;;;;5012229;28;20103;-80
2023/12/03 02:30:46;;;;;;;26.27;9.60;;;3.60;99.90;;;;;;5012219;28;20018;-80
2023/12/03 02:33:13;;;;;;;28.42;9.60;;;3.70;99.90;;;;;;5011972;28;20040;-80
2023/12/03 02:35:38;;;;;;;19.70;8.90;;;3.70;99.90;;;;;;5009519;28;20025;-79
2023/12/03 02:38:04;;;;;;;21.88;9.13;;;3.70;99.90;;;;;;5010411;28;20025;-80
2023/12/03 02:40:34;;;;;;;21.75;10.05;;;3.60;99.90;;;;;;5014041;28;20053;-78
2023/12/03 02:43:00;;;;;;;23.58;9.45;;;3.60;99.90;;;;;;5011562;28;20057;-80
2023/12/03 02:45:26;;;;;;;26.80;10.20;;;3.60;99.90;;;;;;5013717;28;20026;-79
2023/12/03 02:47:51;;;;;;;29.70;10.38;;;3.50;99.90;;;;;;5010086;28;20072;-79
2023/12/03 02:50:17;;;;;;;24.55;10.73;;;3.60;99.90;;;;;;5013630;28;20477;-80
2023/12/03 02:52:43;;;;;;;30.25;10.15;;;3.60;99.90;;;;;;5013715;28;20026;-79
2023/12/03 02:55:09;;;;;;;25.92;10.25;;;3.50;99.90;;;;;;5012354;28;20025;-79
2023/12/03 02:57:35;;;;;;;26.75;12.48;;;3.50;99.90;;;;;;5013102;28;20048;-80
2023/12/03 03:00:02;;;;;;;27.42;11.73;;;3.50;99.90;;;;;;5012146;28;20476;-80
2023/12/03 03:02:27;;;;;;;26.00;10.57;;;3.50;99.90;;;;;;5011920;28;20476;-80
2023/12/03 03:04:53;;;;;;;29.92;10.57;;;3.50;99.90;;;;;;5013359;28;20026;-80
2023/12/03 03:07:19;;;;;;;22.67;11.25;;;3.60;99.90;;;;;;5013166;28;20108;-80
2023/12/03 03:09:44;;;;;;;28.40;11.52;;;3.50;99.90;;;;;;5012238;28;20068;-80
2023/12/03 03:12:10;;;;;;;24.63;11.27;;;3.50;99.90;;;;;;5013403;28;20076;-80
2023/12/03 03:14:36;;;;;;;28.02;11.95;;;3.50;99.90;;;;;;5011594;28;20018;-79
2023/12/03 03:17:01;;;;;;;29.40;12.15;;;3.50;99.90;;;;;;5011884;28;20029;-80
2023/12/03 03:19:27;;;;;;;30.85;13.77;;;3.50;99.90;;;;;;5011911;28;20014;-80
2023/12/03 03:21:53;;;;;;;28.17;12.57;;;3.40;99.90;;;;;;5011355;28;20445;-80
2023/12/03 03:24:18;;;;;;;23.15;11.18;;;3.40;99.90;;;;;;5013237;28;20100;-81
2023/12/03 03:26:44;;;;;;;23.63;10.82;;;3.30;99.90;;;;;;5012775;28;20060;-80
2023/12/03 03:29:09;;;;;;;27.58;12.65;;;3.20;99.90;;;;;;5013124;28;20084;-80
2023/12/03 03:31:35;;;;;;;20.92;11.07;;;3.10;99.90;;;;;;5012538;28;20034;-80
2023/12/03 03:34:02;;;;;;;26.67;11.23;;;3.00;99.90;;;;;;5012693;28;20022;-80
2023/12/03 03:36:28;;;;;;;25.20;11.53;;;2.90;99.90;;;;;;5011928;28;20113;-80
2023/12/03 03:38:53;;;;;;;20.25;10.68;;;2.80;99.90;;;;;;5012937;28;20113;-80
2023/12/03 03:41:19;;;;;;;22.98;10.73;;;2.70;99.90;;;;;;5010762;28;20026;-80
2023/12/03 03:43:45;;;;;;;23.13;11.20;;;2.70;99.90;;;;;;5011816;28;20071;-80
2023/12/03 03:46:11;;;;;;;21.13;9.98;;;2.60;99.90;;;;;;5012460;28;20026;-81
2023/12/03 03:48:37;;;;;;;23.33;11.35;;;2.60;99.90;;;;;;5012850;28;20025;-80
2023/12/03 03:51:05;;;;;;;31.60;11.38;;;2.50;99.90;;;;;;5012854;28;20159;-81
2023/12/03 03:53:30;;;;;;;;;;;2.40;99.90;;;;;;5012451;28;20071;-81
2023/12/03 03:55:56;;;;;;;18.15;9.25;;;2.40;99.90;;;;;;5015192;28;19910;-80
2023/12/03 03:58:22;;;;;;;23.30;9.98;;;2.40;99.90;;;;;;5016109;28;20021;-80
2023/12/03 04:00:47;;;;;;;20.20;10.02;;;2.30;99.90;;;;;;5015081;28;20022;-80
2023/12/03 04:03:13;;;;;;;19.27;9.55;;;2.20;99.90;;;;;;5015313;28;20026;-80
2023/12/03 04:05:38;;;;;;;22.23;10.05;;;2.20;99.90;;;;;;5015447;28;20113;-80
2023/12/03 04:08:04;;;;;;;20.98;9.93;;;2.20;99.90;;;;;;5015285;28;20503;-80
2023/12/03 04:10:30;;;;;;;18.70;8.45;;;2.20;99.90;;;;;;5014393;28;20117;-81
2023/12/03 04:12:56;;;;;;;19.48;8.85;;;2.10;99.90;;;;;;5016282;28;20022;-79
2023/12/03 04:15:22;;;;;;;28.20;9.23;;;2.10;99.90;;;;;;5016445;28;20073;-79
2023/12/03 04:17:47;;;;;;;18.52;8.38;;;2.00;99.90;;;;;;5014804;28;20053;-79
2023/12/03 04:20:13;;;;;;;22.35;9.18;;;2.10;99.90;;;;;;5016221;28;20050;-79
2023/12/03 04:22:39;;;;;;;15.77;8.50;;;2.00;99.90;;;;;;5015000;28;20037;-80
2023/12/03 04:25:05;;;;;;;19.90;9.95;;;2.00;99.90;;;;;;5015174;28;20519;-79
2023/12/03 04:27:31;;;;;;;19.67;9.32;;;2.00;99.90;;;;;;5015889;28;20481;-80
2023/12/03 04:29:56;;;;;;;20.02;9.18;;;1.90;99.90;;;;;;5014929;28;20423;-79
2023/12/03 04:32:22;;;;;;;18.05;9.18;;;1.90;99.90;;;;;;5014847;28;20121;-79
2023/12/03 04:34:50;;;;;;;16.98;8.60;;;1.90;99.90;;;;;;5014702;28;20412;-80
2023/12/03 04:37:16;;;;;;;20.23;8.93;;;1.90;99.90;;;;;;5014514;28;20017;-79
2023/12/03 04:39:45;;;;;;;19.08;8.85;;;1.80;99.90;;;;;;5016053;28;20108;-78
2023/12/03 04:42:10;;;;;;;23.00;9.23;;;1.80;99.90;;;;;;5014560;28;20064;-78
2023/12/03 04:44:36;;;;;;;18.65;7.78;;;1.80;99.90;;;;;;5014733;28;20429;-78
2023/12/03 04:47:02;;;;;;;17.58;8.82;;;1.80;99.90;;;;;;5014515;28;20422;-78
2023/12/03 04:49:28;;;;;;;27.88;9.68;;;1.70;99.90;;;;;;5014445;28;20030;-79
2023/12/03 04:51:53;;;;;;;24.00;10.38;;;1.80;99.90;;;;;;5014482;28;20544;-79
2023/12/03 04:54:19;;;;;;;20.70;9.43;;;1.70;99.90;;;;;;5015598;28;20472;-78
2023/12/03 04:56:45;;;;;;;16.70;8.02;;;1.70;99.90;;;;;;5015594;28;20022;-78
2023/12/03 04:59:10;;;;;;;27.88;10.15;;;1.70;99.90;;;;;;5014211;28;20025;-78
2023/12/03 05:01:37;;;;;;;17.77;7.72;;;1.60;99.90;;;;;;5014605;28;20030;-80
2023/12/03 05:04:03;;;;;;;21.10;7.72;;;1.60;99.90;;;;;;5015679;28;20452;-79
2023/12/03 05:06:29;;;;;;;17.55;8.35;;;1.50;99.90;;;;;;5006500;28;20064;-78
2023/12/03 05:08:55;;;;;;;18.55;8.32;;;1.50;99.90;;;;;;5011177;28;20032;-79
2023/12/03 05:11:21;;;;;;;19.92;9.10;;;1.50;99.90;;;;;;5015318;28;20029;-78
2023/12/03 05:13:47;;;;;;;19.15;9.35;;;1.50;99.90;;;;;;5013998;28;20104;-79
2023/12/03 05:16:13;;;;;;;18.48;9.23;;;1.40;99.90;;;;;;5013734;28;20042;-79
2023/12/03 05:18:39;;;;;;;22.95;8.68;;;1.40;99.90;;;;;;5014934;28;20531;-80
2023/12/03 05:21:05;;;;;;;18.42;7.70;;;1.40;99.90;;;;;;5013722;28;20058;-79
2023/12/03 05:23:30;;;;;;;23.42;8.95;;;1.40;99.90;;;;;;5015032;28;20026;-79
2023/12/03 05:25:57;;;;;;;24.38;9.48;;;1.40;99.90;;;;;;5014592;28;20073;-79
2023/12/03 05:28:23;;;;;;;20.55;8.82;;;1.30;99.90;;;;;;5013831;28;20034;-79
2023/12/03 05:30:49;;;;;;;20.10;8.20;;;1.30;99.90;;;;;;5014688;28;20388;-79
2023/12/03 05:33:15;;;;;;;20.63;8.43;;;1.30;99.90;;;;;;5014870;28;20492;-79
2023/12/03 05:35:41;;;;;;;22.80;9.13;;;1.30;99.90;;;;;;5014790;28;20026;-80
2023/12/03 05:38:07;;;;;;;24.75;9.43;;;1.30;99.90;;;;;;5012982;28;20164;-79
2023/12/03 05:40:33;;;;;;;21.92;8.02;;;1.20;99.90;;;;;;5014535;28;20022;-80
2023/12/03 05:43:00;;;;;;;21.33;8.50;;;1.20;99.90;;;;;;5013506;28;20026;-80
2023/12/03 05:45:26;;;;;;;18.25;8.30;;;1.20;99.90;;;;;;5013603;28;20034;-79
2023/12/03 05:47:51;;;;;;;20.58;8.95;;;1.20;99.90;;;;;;5013271;28;20029;-79
2023/12/03 05:50:17;;;;;;;17.52;8.35;;;1.20;99.90;;;;;;5013422;28;20062;-80
2023/12/03 05:52:43;;;;;;;17.02;8.63;;;1.30;99.90;;;;;;5013337;28;20033;-80
2023/12/03 05:55:09;;;;;;;20.23;8.50;;;1.20;99.90;;;;;;5013052;28;20076;-79
2023/12/03 05:57:34;;;;;;;22.35;8.65;;;1.20;99.90;;;;;;5013435;28;20064;-79
2023/12/03 06:00:00;;;;;;;22.95;8.77;;;1.20;99.90;;;;;;5013183;28;20022;-80
2023/12/03 06:02:26;;;;;;;24.50;10.02;;;1.20;99.90;;;;;;5014380;28;20026;-80
2023/12/03 06:04:52;;;;;;;26.33;9.60;;;1.20;99.90;;;;;;5014148;28;20594;-79
2023/12/03 06:07:17;;;;;;;24.90;9.07;;;1.20;99.90;;;;;;4993503;28;20120;-80
2023/12/03 06:09:43;;;;;;;22.25;8.70;;;1.20;99.90;;;;;;4995383;28;20026;-80
2023/12/03 06:12:09;;;;;;;24.98;9.02;;;1.20;99.90;;;;;;5012834;28;20124;-79
2023/12/03 06:14:34;;;;;;;29.08;10.00;;;1.20;99.90;;;;;;5012817;28;20029;-79
2023/12/03 06:17:01;;;;;;;24.55;8.98;;;1.10;99.90;;;;;;5014132;28;20555;-79
2023/12/03 06:19:26;;;;;;;23.65;9.60;;;1.10;99.90;;;;;;5012722;28;20534;-79
2023/12/03 06:21:52;;;;;;;29.40;10.63;;;1.10;99.90;;;;;;5013913;28;20034;-80
2023/12/03 06:24:18;;;;;;;28.17;12.05;;;1.10;99.90;;;;;;5012912;28;20042;-78
2023/12/03 06:26:44;;;;;;;23.45;9.13;;;1.00;99.90;;;;;;5012529;28;20427;-79
2023/12/03 06:29:10;;;;;;;36.15;11.35;;;1.00;99.90;;;;;;5012890;28;20034;-78
2023/12/03 06:31:35;;;;;;;24.63;9.02;;;1.00;99.90;;;;;;5012412;28;20038;-78
2023/12/03 06:34:01;;;;;;;31.52;9.80;;;0.90;99.90;;;;;;5012611;28;20026;-78
2023/12/03 06:36:27;;;;;;;29.45;11.63;;;0.90;99.90;;;;;;5012623;28;20029;-78
2023/12/03 06:38:53;;;;;;;27.55;10.07;;;0.80;99.90;;;;;;5012382;28;20026;-78
2023/12/03 06:41:18;;;;;;;23.63;9.70;;;0.80;99.90;;;;;;5012485;28;20026;-78
2023/12/03 06:43:44;;;;;;;34.38;10.68;;;0.80;99.90;;;;;;5012237;28;20030;-78
2023/12/03 06:46:10;;;;;;;33.13;12.30;;;0.80;99.90;;;;;;5012509;28;20108;-80
2023/12/03 06:48:36;;;;;;;27.20;10.55;;;0.90;99.90;;;;;;5013553;28;20037;-79
2023/12/03 06:51:02;;;;;;;33.35;10.60;;;0.90;99.90;;;;;;5013359;28;20088;-80
2023/12/03 06:53:27;;;;;;;32.30;10.75;;;0.90;99.90;;;;;;5013724;28;20102;-79
2023/12/03 06:55:53;;;;;;;34.17;12.07;;;0.80;99.90;;;;;;5017872;28;20022;-79
2023/12/03 06:58:19;;;;;;;30.90;10.60;;;0.80;99.90;;;;;;5012015;28;20021;-79
2023/12/03 07:00:44;;;;;;;34.97;12.75;;;0.90;99.90;;;;;;5011737;28;20034;-79
2023/12/03 07:03:10;;;;;;;29.33;11.82;;;0.80;99.90;;;;;;5013011;28;20099;-79
2023/12/03 07:05:37;;;;;;;28.90;10.48;;;0.90;99.90;;;;;;5012023;28;20026;-79
2023/12/03 07:08:02;;;;;;;33.70;12.32;;;0.80;99.90;;;;;;5011627;28;20515;-79
2023/12/03 07:10:28;;;;;;;41.53;13.82;;;0.70;99.90;;;;;;5011733;28;20029;-79
2023/12/03 07:12:54;;;;;;;34.30;11.75;;;0.70;99.90;;;;;;5013413;28;20045;-79
2023/12/03 07:15:21;;;;;;;27.80;10.90;;;0.70;99.90;;;;;;5011900;28;20045;-79
2023/12/03 07:17:47;;;;;;;31.13;11.38;;;0.70;99.90;;;;;;5011536;28;20420;-79
2023/12/03 07:20:12;;;;;;;34.58;12.05;;;0.80;99.90;;;;;;5011919;28;20088;-79
2023/12/03 07:22:39;;;;;;;29.80;12.23;;;0.80;99.90;;;;;;5011985;28;20080;-79
2023/12/03 07:25:05;;;;;;;32.50;11.00;;;0.80;99.90;;;;;;5013059;28;20057;-80
2023/12/03 07:27:31;;;;;;;32.45;11.40;;;0.80;99.90;;;;;;5011208;28;20025;-79
2023/12/03 07:29:57;;;;;;;27.05;10.82;;;0.80;99.90;;;;;;5011490;28;20519;-79
2023/12/03 07:32:23;;;;;;;32.92;11.05;;;0.70;99.90;;;;;;5009363;28;20041;-79
2023/12/03 07:34:49;;;;;;;34.58;10.85;;;0.80;99.90;;;;;;4994221;28;20096;-79
2023/12/03 07:37:15;;;;;;;33.45;11.05;;;0.80;99.90;;;;;;5012675;28;20472;-79
2023/12/03 07:39:41;;;;;;;33.78;11.77;;;0.80;99.90;;;;;;4995134;28;20027;-79
2023/12/03 07:42:07;;;;;;;29.45;10.40;;;0.80;99.90;;;;;;5008259;28;20025;-79
2023/12/03 07:44:32;;;;;;;29.73;11.10;;;0.80;99.90;;;;;;5013046;28;20064;-79
2023/12/03 07:46:58;;;;;;;29.02;10.98;;;0.80;99.90;;;;;;5012932;28;20037;-79
2023/12/03 07:49:24;;;;;;;38.08;12.15;;;0.80;99.90;;;;;;5010549;28;20109;-79
2023/12/03 07:51:50;;;;;;;44.83;12.30;;;0.80;99.90;;;;;;5011192;28;20419;-79
2023/12/03 07:54:19;;;;;;;44.20;14.32;;;0.90;99.90;;;;;;5011646;28;20026;-79
2023/12/03 07:56:45;;;;;;;40.67;15.25;;;0.90;99.90;;;;;;5012672;28;20022;-78
2023/12/03 07:59:11;;;;;;;32.33;12.32;;;0.90;99.90;;;;;;5012801;28;20030;-78
2023/12/03 08:01:37;;;;;;;41.90;14.38;;;0.90;99.90;;;;;;5011308;28;20120;-80
2023/12/03 08:04:04;;;;;;;33.70;12.27;;;0.90;99.90;;;;;;5011634;28;20504;-80
2023/12/03 08:06:34;;;;;;;36.50;12.85;;;0.90;99.90;;;;;;5011470;28;20488;-79
2023/12/03 08:09:00;;;;;;;27.35;11.65;;;0.90;99.90;;;;;;5011564;28;20030;-79
2023/12/03 08:11:27;;;;;;;29.33;10.52;;;1.00;99.90;;;;;;5011205;28;20034;-79
2023/12/03 08:13:55;;;;;;;34.65;11.85;;;1.00;99.90;;;;;;5011559;28;20034;-79
2023/12/03 08:16:21;;;;;;;42.05;12.23;;;1.00;99.90;;;;;;5011203;28;20030;-79
2023/12/03 08:18:47;;;;;;;35.25;11.57;;;1.00;99.90;;;;;;5011451;28;20030;-79
2023/12/03 08:21:13;;;;;;;46.30;12.88;;;1.10;99.90;;;;;;5011234;28;20014;-79
2023/12/03 08:23:40;;;;;;;34.45;12.35;;;1.10;99.90;;;;;;5009937;28;20028;-79
2023/12/03 08:26:06;;;;;;;33.47;11.38;;;1.20;99.90;;;;;;5012455;28;20033;-79
2023/12/03 08:28:32;;;;;;;36.42;12.70;;;1.20;99.90;;;;;;5011434;28;20030;-79
2023/12/03 08:30:58;;;;;;;40.25;12.63;;;1.30;99.90;;;;;;5011238;28;20029;-79
2023/12/03 08:33:24;;;;;;;31.90;11.60;;;1.30;99.90;;;;;;5011122;28;20037;-80
2023/12/03 08:35:50;;;;;;;36.85;11.75;;;1.30;99.90;;;;;;5011380;28;20396;-79
2023/12/03 08:38:16;;;;;;;33.53;11.32;;;1.40;99.90;;;;;;5011230;28;20436;-79
2023/12/03 08:40:41;;;;;;;35.22;11.63;;;1.40;99.90;;;;;;5011792;28;20590;-79
2023/12/03 08:43:07;;;;;;;34.42;11.77;;;1.40;99.90;;;;;;5004914;28;20037;-79
2023/12/03 08:45:33;;;;;;;31.20;11.00;;;1.40;99.90;;;;;;5015771;28;20032;-79
2023/12/03 08:48:03;;;;;;;49.88;17.20;;;1.40;99.90;;;;;;5014290;28;20121;-79
2023/12/03 08:50:31;;;;;;;33.70;11.38;;;1.50;99.90;;;;;;5014407;28;20061;-79
2023/12/03 08:52:58;;;;;;;28.73;10.00;;;1.40;99.90;;;;;;5014532;28;20100;-80
2023/12/03 08:55:24;;;;;;;39.38;13.32;;;1.40;99.90;;;;;;5015577;28;20033;-78
2023/12/03 08:57:50;;;;;;;28.17;10.82;;;1.50;99.90;;;;;;5015596;28;20480;-78
2023/12/03 09:00:16;;;;;;;33.42;11.57;;;1.40;99.90;;;;;;5014299;28;20025;-78
2023/12/03 09:02:46;;;;;;;29.80;12.00;;;1.40;99.90;;;;;;5015344;28;20065;-80
2023/12/03 09:05:12;;;;;;;36.25;10.57;;;1.50;99.90;;;;;;5013922;28;20087;-80
2023/12/03 09:07:38;;;;;;;21.95;9.32;;;1.50;99.90;;;;;;5014345;28;20183;-79
2023/12/03 09:10:06;;;;;;;27.52;9.52;;;1.60;99.90;;;;;;5013957;28;20103;-79
2023/12/03 09:12:31;;;;;;;28.95;10.63;;;1.70;99.90;;;;;;5015052;28;20022;-79
2023/12/03 09:14:58;;;;;;;28.73;10.10;;;1.70;99.90;;;;;;5013815;28;20499;-79
2023/12/03 09:17:24;;;;;;;24.42;8.70;;;1.80;99.90;;;;;;5013966;28;20514;-77
2023/12/03 09:19:49;;;;;;;25.08;9.98;;;1.80;99.90;;;;;;5011996;28;20057;-80
2023/12/03 09:22:16;;;;;;;30.08;9.60;;;1.90;99.90;;;;;;5000896;28;20511;-79
2023/12/03 09:24:41;;;;;;;25.20;10.02;;;1.80;99.90;;;;;;5013886;28;20458;-79
2023/12/03 09:27:07;;;;;;;24.42;9.90;;;1.90;99.90;;;;;;5014266;28;20034;-79
2023/12/03 09:29:33;;;;;;;25.88;9.15;;;1.90;99.90;;;;;;5013643;28;20113;-79
2023/12/03 09:31:59;;;;;;;35.10;10.90;;;2.00;99.90;;;;;;5014835;28;20026;-79
2023/12/03 09:34:25;;;;;;;27.50;10.43;;;2.00;99.90;;;;;;5013659;28;20423;-81
2023/12/03 09:36:50;;;;;;;32.35;10.25;;;2.00;99.90;;;;;;5015067;28;20506;-78
2023/12/03 09:39:17;;;;;;;25.90;10.75;;;2.10;99.90;;;;;;5013693;28;20034;-79
2023/12/03 09:41:48;;;;;;;24.90;8.32;;;2.10;99.90;;;;;;5014007;28;20033;-81
2023/12/03 09:44:21;;;;;;;28.33;9.18;;;2.20;99.90;;;;;;5013112;28;20392;-81
2023/12/03 09:46:50;;;;;;;29.55;9.25;;;2.30;99.90;;;;;;5014938;28;20026;-80
2023/12/03 09:49:21;;;;;;;23.75;8.73;;;2.20;99.90;;;;;;5014635;28;20393;-81
2023/12/03 09:51:47;;;;;;;30.33;9.45;;;2.30;99.90;;;;;;5012497;28;20026;-81
2023/12/03 09:54:13;;;;;;;21.77;8.10;;;2.40;99.90;;;;;;5013232;28;20026;-80
2023/12/03 09:56:42;;;;;;;29.90;9.75;;;2.50;99.90;;;;;;5014446;28;20030;-80
2023/12/03 09:59:13;;;;;;;25.40;9.45;;;2.60;99.90;;;;;;5014297;28;20030;-79
2023/12/03 10:01:39;;;;;;;29.33;10.13;;;2.70;99.90;;;;;;5014772;28;20460;-80
2023/12/03 10:04:05;;;;;;;24.90;8.90;;;2.70;99.90;;;;;;5014218;28;20030;-83
2023/12/03 10:06:39;;;;;;;21.25;8.32;;;2.80;99.90;;;;;;5010821;28;20032;-80
2023/12/03 10:09:07;;;;;;;24.35;8.30;;;2.80;99.90;;;;;;5012930;28;20512;-80
2023/12/03 10:11:39;;;;;;;29.05;9.73;;;2.80;99.90;;;;;;5013223;28;20041;-80
2023/12/03 10:14:10;;;;;;;21.30;8.57;;;2.70;99.90;;;;;;5012560;28;20037;-81
2023/12/03 10:16:35;;;;;;;19.98;9.00;;;2.80;99.90;;;;;;4993412;28;20030;-81
2023/12/03 10:19:02;;;;;;;32.78;9.00;;;2.90;99.90;;;;;;5010094;28;20034;-81
2023/12/03 10:21:27;;;;;;;23.45;8.93;;;2.80;99.90;;;;;;5007920;28;20377;-80
2023/12/03 10:24:03;;;;;;;21.20;8.55;;;2.80;99.90;;;;;;5012529;28;20150;-80
2023/12/03 10:26:29;;;;;;;22.50;7.75;;;2.80;99.90;;;;;;5008973;28;20108;-81
2023/12/03 10:28:55;;;;;;;22.35;7.57;;;2.80;99.90;;;;;;5027874;28;20121;-81
2023/12/03 10:31:21;;;;;;;21.25;7.88;;;2.80;99.90;;;;;;5012572;28;20069;-80
2023/12/03 10:33:46;;;;;;;26.10;9.25;;;2.90;99.90;;;;;;5013986;28;20030;-79
2023/12/03 10:36:13;;;;;;;22.92;7.50;;;2.90;99.90;;;;;;5012684;28;20033;-79
2023/12/03 10:38:42;;;;;;;23.98;8.98;;;2.90;99.90;;;;;;5014240;28;20032;-80
2023/12/03 10:41:09;;;;;;;22.50;7.70;;;2.90;99.90;;;;;;5012167;28;20033;-79
2023/12/03 10:43:36;;;;;;;12.45;5.05;;;2.90;99.90;;;;;;5013693;28;20096;-82
2023/12/03 10:46:19;;;;;;;23.73;7.63;;;2.90;99.90;;;;;;5012227;28;20037;-82
2023/12/03 10:48:46;;;;;;;19.15;7.15;;;3.00;99.90;;;;;;5014226;28;20488;-82
2023/12/03 10:51:12;;;;;;;17.90;6.93;;;3.10;99.90;;;;;;5011935;28;20014;-82
2023/12/03 10:53:38;;;;;;;20.95;7.85;;;3.10;99.90;;;;;;5012189;28;20026;-81
2023/12/03 10:56:06;;;;;;;15.88;6.45;;;3.20;99.90;;;;;;5012891;28;20053;-78
2023/12/03 10:58:38;;;;;;;;;;;3.30;99.90;;;;;;5013499;28;20440;-80
2023/12/03 11:01:19;;;;;;;17.45;6.07;;;3.30;99.90;;;;;;5011527;28;19909;-79
2023/12/03 11:03:54;;;;;;;19.70;7.20;;;3.50;99.90;;;;;;5010758;28;20099;-79
2023/12/03 11:06:25;;;;;;;14.45;6.80;;;3.60;99.90;;;;;;5011617;28;20034;-80
2023/12/03 11:08:52;;;;;;;20.42;6.65;;;3.70;99.90;;;;;;5011876;28;20037;-80
2023/12/03 11:11:22;;;;;;;17.10;5.93;;;3.80;99.90;;;;;;5012901;28;20026;-79
2023/12/03 11:13:56;;;;;;;20.83;5.90;;;3.80;99.90;;;;;;5012917;28;20069;-79
2023/12/03 11:16:25;;;;;;;21.23;6.53;;;3.70;99.90;;;;;;5028127;28;20447;-79
2023/12/03 11:19:01;;;;;;;15.45;6.30;;;3.60;99.90;;;;;;5011339;28;20041;-79
2023/12/03 11:21:56;;;;;;;16.25;6.22;;;3.50;99.90;;;;;;5011686;28;20120;-80
2023/12/03 11:24:52;;;;;;;18.83;6.68;;;3.50;99.90;;;;;;5007772;28;20029;-82
2023/12/03 11:27:24;;;;;;;16.23;6.18;;;3.60;99.90;;;;;;5007469;28;20026;-80
2023/12/03 11:29:50;;;;;;;18.27;6.05;;;3.50;99.90;;;;;;5011755;28;20064;-82
2023/12/03 11:32:17;;;;;;;14.18;6.47;;;3.50;99.90;;;;;;5011186;28;20385;-81
2023/12/03 11:34:43;;;;;;;15.38;6.65;;;3.50;99.90;;;;;;5012797;28;20452;-81
2023/12/03 11:37:10;;;;;;;16.42;6.85;;;3.50;99.90;;;;;;5011909;28;20404;-80
2023/12/03 11:39:42;;;;;;;22.85;6.18;;;3.50;99.90;;;;;;5006018;28;20026;-80
2023/12/03 11:42:12;;;;;;;19.13;6.95;;;3.60;99.90;;;;;;5011360;28;20026;-81
2023/12/03 11:44:38;;;;;;;20.95;7.35;;;3.50;99.90;;;;;;5012703;28;20148;-81
2023/12/03 11:47:07;;;;;;;20.00;7.15;;;3.50;99.90;;;;;;5012753;28;20480;-81
2023/12/03 11:49:34;;;;;;;19.40;7.70;;;3.40;99.90;;;;;;5012656;28;20034;-81
2023/12/03 11:52:01;;;;;;;19.27;7.15;;;3.40;99.90;;;;;;5012885;28;20041;-81
2023/12/03 11:54:58;;;;;;;19.08;6.82;;;3.30;99.90;;;;;;5011451;28;20396;-81
2023/12/03 11:57:24;;;;;;;15.40;6.00;;;3.30;99.90;;;;;;4993402;28;20121;-81
2023/12/03 11:59:49;;;;;;;16.73;7.03;;;3.30;99.90;;;;;;5008307;28;20125;-81
2023/12/03 12:02:16;;;;;;;20.42;7.07;;;3.40;99.90;;;;;;5012434;28;20034;-81
2023/12/03 12:04:41;;;;;;;13.35;5.63;;;3.40;99.90;;;;;;5011545;28;20026;-81
2023/12/03 12:07:15;;;;;;;16.02;7.55;;;3.50;99.90;;;;;;5012315;28;20065;-80
2023/12/03 12:09:41;;;;;;;17.50;6.70;;;3.50;99.90;;;;;;5012469;28;20030;-81
2023/12/03 12:12:07;;;;;;;20.52;7.28;;;3.60;99.90;;;;;;5012542;28;20499;-81
2023/12/03 12:14:33;;;;;;;16.42;7.72;;;3.60;99.90;;;;;;5011773;28;20439;-81
2023/12/03 12:16:59;;;;;;;16.67;7.20;;;3.70;99.90;;;;;;5014883;28;20076;-80
2023/12/03 12:19:24;;;;;;;13.45;5.97;;;3.80;99.90;;;;;;5015209;28;20022;-80
2023/12/03 12:21:54;;;;;;;19.40;7.28;;;3.90;99.90;;;;;;5014932;28;20030;-80
2023/12/03 12:24:20;;;;;;;20.40;6.95;;;3.90;99.90;;;;;;5014776;28;20034;-80
2023/12/03 12:26:46;;;;;;;16.00;6.68;;;3.90;99.90;;;;;;5014519;28;20514;-80
2023/12/03 12:29:13;;;;;;;20.60;7.15;;;3.90;99.90;;;;;;5016095;28;20451;-80
2023/12/03 12:31:40;;;;;;;16.85;6.72;;;4.00;99.90;;;;;;5015041;28;20030;-81
2023/12/03 12:34:06;;;;;;;17.67;6.85;;;4.10;99.90;;;;;;5012092;28;20404;-79
2023/12/03 12:36:32;;;;;;;19.48;7.13;;;4.10;99.90;;;;;;5015590;28;20033;-79
2023/12/03 12:38:57;;;;;;;19.40;6.78;;;4.20;99.90;;;;;;5014647;28;20072;-80
2023/12/03 12:41:23;;;;;;;25.25;6.55;;;4.30;99.90;;;;;;5015242;28;20448;-80